Time;durP1;ratioP1;P1;durP2;ratioP2;P2;SDS_P1;SDS_P2;PMS_P1;PMS_P2;Temp;Humidity;BMP_temperature;BMP_pressure;BME280_temperature;BME280_humidity;BME280_pressure;Samples;Min_cycle;Max_cycle;Signal;HPM_P1;HPM_P2
2020/12/29 00:05:06;;;;;;;23.60;15.80;;;;;;;3.51;79.18;94960.52;1752233;78;21085;-85
2020/12/29 00:11:18;;;;;;;25.00;15.25;;;;;;;3.58;79.24;94958.96;1733021;78;21288;-85
2020/12/29 00:14:09;;;;;;;23.75;16.90;;;;;;;3.64;79.12;94958.86;1730756;83;21155;-84
2020/12/29 00:16:52;;;;;;;20.52;14.40;;;;;;;3.68;78.70;94948.50;1730885;83;21172;-84
2020/12/29 00:23:22;;;;;;;24.92;15.18;;;;;;;3.67;78.57;94933.34;1744996;78;21157;-85
2020/12/29 00:25:52;;;;;;;27.75;17.15;;;;;;;3.60;78.53;94944.50;1755163;81;21088;-84
2020/12/29 00:28:30;;;;;;;30.35;19.30;;;;;;;3.56;78.57;94945.29;1737170;79;21237;-85
2020/12/29 00:31:40;;;;;;;22.22;13.85;;;;;;;3.55;78.55;94944.92;1752836;78;21208;-85
2020/12/29 00:34:13;;;;;;;21.12;14.85;;;;;;;3.54;78.53;94941.99;1787724;80;21161;-85
2020/12/29 00:40:28;;;;;;;22.37;13.72;;;;;;;3.52;77.99;94941.33;1710689;79;21117;-84
2020/12/29 00:43:36;;;;;;;19.77;13.15;;;;;;;3.46;77.89;94940.13;1756772;81;21082;-85
2020/12/29 00:49:49;;;;;;;22.48;13.93;;;;;;;3.44;77.67;94914.75;1704698;78;21237;-85
2020/12/29 00:52:22;;;;;;;17.57;11.40;;;;;;;3.46;77.71;94922.41;1710712;83;21185;-85
2020/12/29 00:54:57;;;;;;;19.65;12.20;;;;;;;3.47;77.61;94906.63;1684732;84;21219;-86
2020/12/29 01:01:15;;;;;;;20.17;11.63;;;;;;;3.54;77.09;94896.45;1722285;77;21055;-86
2020/12/29 01:11:21;;;;;;;19.90;11.83;;;;;;;3.39;76.52;94889.65;1746851;78;21121;-85
2020/12/29 01:14:06;;;;;;;21.50;13.45;;;;;;;3.32;76.98;94883.86;1724685;79;21530;31
2020/12/29 01:17:17;;;;;;;18.65;11.48;;;;;;;3.32;77.18;94872.99;1727918;79;21510;-86
2020/12/29 01:19:49;;;;;;;17.62;12.73;;;;;;;3.36;77.34;94876.92;1764852;81;21209;-86
2020/12/29 01:22:25;;;;;;;17.15;11.00;;;;;;;3.41;77.41;94860.88;1766576;80;21362;-84
2020/12/29 01:25:34;;;;;;;20.80;12.82;;;;;;;3.44;77.39;94869.70;1752699;81;21085;-86
2020/12/29 01:28:06;;;;;;;18.60;11.88;;;;;;;3.41;77.22;94851.28;1765351;81;21066;-84
2020/12/29 01:30:38;;;;;;;18.23;11.08;;;;;;;3.41;77.39;94849.17;1766482;77;21019;-83
2020/12/29 01:33:48;;;;;;;21.17;12.60;;;;;;;3.44;77.45;94830.67;1764571;77;21163;-85
2020/12/29 01:36:23;;;;;;;20.12;12.55;;;;;;;3.47;77.50;94829.06;1765381;80;21350;-86
2020/12/29 01:42:55;;;;;;;54.33;22.13;;;;;;;3.54;77.26;94814.97;1675917;83;21059;-86
2020/12/29 01:45:25;;;;;;;66.00;24.80;;;;;;;3.50;76.96;94800.16;1723646;82;21043;-86
2020/12/29 01:47:59;;;;;;;36.55;16.95;;;;;;;3.49;76.80;94810.20;1729842;80;21177;-84
2020/12/29 01:51:19;;;;;;;41.08;18.60;;;;;;;3.45;76.95;94809.70;1718660;78;21498;-84
2020/12/29 01:53:49;;;;;;;25.37;15.85;;;;;;;3.37;76.64;94834.33;1720360;83;21220;-87
2020/12/29 02:00:03;;;;;;;30.27;26.82;;;;;;;3.17;76.62;94835.43;1769461;79;21161;-86
2020/12/29 02:02:41;;;;;;;33.85;27.87;;;;;;;3.17;77.16;94826.33;1804695;79;21186;-86
2020/12/29 02:08:52;;;;;;;34.92;26.70;;;;;;;3.28;77.39;94832.63;1746585;78;21263;-85
2020/12/29 02:11:24;;;;;;;24.15;18.20;;;;;;;3.31;77.24;94818.49;1733189;82;21065;-85
2020/12/29 02:13:59;;;;;;;27.48;19.85;;;;;;;3.28;77.28;94809.22;1734432;80;21118;-86
2020/12/29 02:16:48;;;;;;;23.45;18.35;;;;;;;3.28;77.41;94798.00;1700045;79;21217;-85
2020/12/29 02:19:36;;;;;;;23.27;16.90;;;;;;;3.31;77.57;94788.09;1735115;82;21536;-86
2020/12/29 02:22:39;;;;;;;25.65;16.95;;;;;;;3.38;77.36;94757.09;1725728;78;21224;31
2020/12/29 02:25:50;;;;;;;25.65;16.37;;;;;;;3.40;77.22;94770.79;1714280;83;21240;-85
2020/12/29 02:28:20;;;;;;;26.23;17.62;;;;;;;3.41;76.92;94737.30;1714629;83;21267;-84
2020/12/29 02:34:31;;;;;;;30.95;16.97;;;;;;;3.35;76.79;94703.59;1787465;78;21038;-84
2020/12/29 02:43:46;;;;;;;26.27;13.88;;;;;;;3.28;77.39;94714.27;1643343;86;21212;-85
2020/12/29 02:50:01;;;;;;;26.00;12.43;;;;;;;3.29;77.27;94711.19;1581370;83;21974;-84
2020/12/29 02:52:33;;;;;;;19.52;10.88;;;;;;;3.19;77.01;94723.77;1652873;83;21066;-86
2020/12/29 02:55:10;;;;;;;22.13;10.58;;;;;;;3.17;77.10;94729.62;1659859;84;21202;-84
2020/12/29 02:58:07;;;;;;;18.57;10.88;;;;;;;3.19;77.22;94738.56;1657324;86;21162;-86
2020/12/29 03:00:36;;;;;;;17.17;9.10;;;;;;;3.23;77.17;94737.31;1658216;86;21101;-86
2020/12/29 03:03:11;;;;;;;22.17;11.50;;;;;;;3.28;77.10;94729.06;1660122;83;22624;-85
2020/12/29 03:06:16;;;;;;;24.32;10.70;;;;;;;3.32;77.00;94712.17;1662475;85;21255;-83
2020/12/29 03:08:47;;;;;;;20.35;9.60;;;;;;;3.36;76.90;94713.03;1640508;87;21194;-83
2020/12/29 03:11:31;;;;;;;27.20;10.75;;;;;;;3.39;76.98;94704.94;1649594;86;21195;-85
2020/12/29 03:14:39;;;;;;;46.02;20.85;;;;;;;3.43;77.03;94714.54;1661265;77;21159;-83
2020/12/29 03:17:30;;;;;;;21.95;11.70;;;;;;;3.44;77.04;94714.41;1741361;81;21379;-86
2020/12/29 03:20:36;;;;;;;55.15;24.60;;;;;;;3.47;76.91;94723.20;1728756;79;21306;-84
2020/12/29 03:23:50;;;;;;;67.03;25.70;;;;;;;3.39;76.94;94714.53;1763334;79;21613;-85
2020/12/29 03:26:44;;;;;;;192.55;68.85;;;;;;;3.31;77.30;94702.25;1695986;83;21167;-85
2020/12/29 03:29:20;;;;;;;65.00;26.15;;;;;;;3.31;77.50;94709.24;1756459;81;21098;-84
2020/12/29 03:31:58;;;;;;;79.17;33.02;;;;;;;3.35;77.61;94697.58;1716884;82;21172;-84
2020/12/29 03:34:37;;;;;;;37.58;17.32;;;;;;;3.36;77.56;94701.80;1730368;82;21192;-86
2020/12/29 03:37:10;;;;;;;40.43;19.15;;;;;;;3.36;77.46;94707.83;1750888;80;21105;-84
2020/12/29 03:46:54;;;;;;;159.93;63.55;;;;;;;3.34;77.36;94729.28;1670303;80;21116;31
2020/12/29 03:50:03;;;;;;;151.80;58.92;;;;;;;3.28;77.85;94715.58;1652106;82;21615;-85
2020/12/29 03:52:59;;;;;;;74.47;33.60;;;;;;;3.33;77.81;94726.84;1663226;83;22163;31
2020/12/29 03:56:14;;;;;;;162.88;68.00;;;;;;;3.38;77.60;94712.87;1650584;81;21129;-86
2020/12/29 03:58:45;;;;;;;25.68;13.15;;;;;;;3.39;77.28;94716.64;1715765;83;21122;-85
2020/12/29 04:01:16;;;;;;;17.52;9.43;;;;;;;3.40;77.16;94712.25;1721783;83;21237;-84
2020/12/29 04:03:45;;;;;;;16.35;9.45;;;;;;;3.43;77.07;94710.64;1690767;85;21586;-86
2020/12/29 04:06:14;;;;;;;13.03;8.60;;;;;;;3.47;77.09;94708.89;1690622;85;22176;-85
2020/12/29 04:08:45;;;;;;;13.90;8.60;;;;;;;3.53;77.00;94707.95;1690635;85;21106;-86
2020/12/29 04:11:14;;;;;;;14.00;9.05;;;;;;;3.61;76.82;94704.09;1690673;85;21113;-86
2020/12/29 04:13:46;;;;;;;14.95;8.13;;;;;;;3.64;76.51;94711.61;1756421;80;21156;-86
2020/12/29 04:16:16;;;;;;;17.35;8.60;;;;;;;3.62;76.42;94695.34;1820804;78;21244;-86
2020/12/29 04:18:47;;;;;;;15.15;8.90;;;;;;;3.63;76.40;94695.67;1820469;78;21191;-85
2020/12/29 04:21:17;;;;;;;13.10;8.23;;;;;;;3.65;76.26;94689.33;1788130;80;21113;-84
2020/12/29 04:23:48;;;;;;;15.43;8.65;;;;;;;3.67;76.25;94704.30;1821259;78;21605;-85
2020/12/29 04:26:19;;;;;;;15.40;8.58;;;;;;;3.67;76.15;94686.56;1768168;78;21149;-85
2020/12/29 04:28:49;;;;;;;12.28;8.05;;;;;;;3.68;76.27;94689.04;1789422;80;21021;-84
2020/12/29 04:31:34;;;;;;;12.60;7.92;;;;;;;3.74;76.06;94669.39;1792783;79;21198;-86
2020/12/29 04:34:04;;;;;;;16.60;9.55;;;;;;;3.78;75.88;94652.47;1785704;80;21192;-85
2020/12/29 04:36:36;;;;;;;15.88;9.38;;;;;;;3.82;75.60;94653.80;1793178;79;21144;-86
2020/12/29 04:39:06;;;;;;;16.42;9.33;;;;;;;3.80;75.36;94632.33;1792576;79;21139;-87
2020/12/29 04:41:38;;;;;;;18.75;8.78;;;;;;;3.78;75.30;94632.13;1792719;80;21124;-87
2020/12/29 04:44:09;;;;;;;22.40;9.75;;;;;;;3.75;75.29;94641.89;1792505;80;21373;-86
2020/12/29 04:46:40;;;;;;;17.60;9.00;;;;;;;3.74;75.45;94622.05;1791808;80;21184;-86
2020/12/29 04:49:09;;;;;;;30.02;9.45;;;;;;;3.79;75.39;94617.66;1759626;80;21198;-87
2020/12/29 04:55:29;;;;;;;20.80;9.13;;;;;;;3.91;74.93;94616.89;1744031;78;21035;-87
2020/12/29 04:58:03;;;;;;;21.27;9.45;;;;;;;4.01;74.81;94624.11;1722771;83;22425;-84
2020/12/29 06:29:25;;;;;;;3.90;1.70;;;;;;;7.34;66.82;94605.20;1675478;81;28733;31
2020/12/29 06:33:12;;;;;;;4.00;1.62;;;;;;;7.33;66.37;94614.87;1627990;83;21237;-83
2020/12/29 17:23:09;;;;;;;26.75;13.72;;;;;;;6.29;51.12;95617.38;1751127;76;21519;-83
2020/12/29 17:26:28;;;;;;;31.35;14.65;;;;;;;6.23;51.47;95605.38;1757100;77;21124;-84
2020/12/29 17:29:44;;;;;;;27.70;13.20;;;;;;;6.17;51.93;95629.00;1774193;78;20975;-84
2020/12/29 17:33:34;;;;;;;24.70;11.73;;;;;;;6.10;52.01;95631.83;1725324;76;21180;-86
2020/12/29 17:40:49;;;;;;;26.20;12.85;;;;;;;5.93;52.71;95650.88;1662850;81;21193;-84
2020/12/29 17:44:09;;;;;;;13.20;5.90;;;;;;;5.86;53.22;95640.14;1681850;83;21258;-86
2020/12/29 17:48:01;;;;;;;9.63;5.07;;;;;;;5.79;52.80;95639.08;1657983;82;21315;-84
2020/12/29 18:06:28;;;;;;;18.87;11.12;;;;;;;5.74;53.61;95669.53;1683561;81;21186;-84
2020/12/29 18:13:33;;;;;;;21.55;12.40;;;;;;;5.61;53.80;95667.23;1657693;82;21295;-84
2020/12/29 18:20:42;;;;;;;18.62;9.78;;;;;;;5.50;54.53;95675.70;1616806;87;21174;-85
2020/12/29 18:28:05;;;;;;;;;;;;;;;5.23;55.30;95689.48;1732069;77;21283;-84
2020/12/29 18:39:26;;;;;;;26.33;13.18;;;;;;;4.87;56.58;95706.64;1660884;80;21261;31
2020/12/29 18:42:49;;;;;;;20.02;12.68;;;;;;;4.75;56.78;95711.16;1653199;82;21065;-86
2020/12/29 18:46:25;;;;;;;52.05;24.75;;;;;;;4.68;56.94;95725.18;1682479;82;21149;-85
2020/12/29 18:49:26;;;;;;;42.05;22.60;;;;;;;4.63;57.37;95733.91;1707292;78;21256;31
2020/12/29 18:52:36;;;;;;;43.63;22.27;;;;;;;4.53;57.59;95718.23;1724690;80;21116;-85
2020/12/29 18:55:59;;;;;;;54.70;25.85;;;;;;;4.49;57.77;95716.83;1764018;81;21039;-87
2020/12/29 18:59:26;;;;;;;55.20;24.43;;;;;;;4.43;58.42;95724.36;1660536;80;21259;-85
2020/12/29 19:03:04;;;;;;;67.30;27.65;;;;;;;4.30;58.72;95727.20;1786726;78;21121;31
2020/12/29 19:06:33;;;;;;;52.08;25.60;;;;;;;4.23;59.17;95735.20;1748717;79;21168;-86
2020/12/29 19:13:36;;;;;;;62.78;32.13;;;;;;;4.05;59.79;95713.33;1681912;81;21288;31
2020/12/29 19:17:06;;;;;;;60.40;35.33;;;;;;;3.97;60.18;95740.00;1692184;82;21051;-86
2020/12/29 19:20:34;;;;;;;60.48;32.48;;;;;;;3.86;60.46;95737.50;1664166;81;21150;-84
2020/12/29 19:23:54;;;;;;;63.02;35.38;;;;;;;3.82;60.70;95747.81;1710828;81;21184;-86
2020/12/29 19:27:08;;;;;;;63.92;38.42;;;;;;;3.81;60.92;95750.08;1705146;82;21206;-84
2020/12/29 20:17:46;;;;;;;82.35;46.35;;;;;;;3.18;63.24;95765.15;1743034;82;28271;-85
2020/12/29 20:20:42;;;;;;;100.33;55.45;;;;;;;3.12;63.41;95764.81;1691561;85;21144;-84
2020/12/29 20:23:15;;;;;;;;;;;;;;;3.09;63.79;95767.69;1695054;83;21342;-86
2020/12/29 20:25:48;;;;;;;81.32;50.10;;;;;;;3.08;63.98;95764.70;1712227;84;20280;-85
2020/12/29 20:28:18;;;;;;;100.42;57.33;;;;;;;3.01;64.28;95778.68;1719678;83;21192;-85
2020/12/29 20:30:47;;;;;;;93.47;49.45;;;;;;;3.01;64.35;95772.66;1712432;84;21224;-85
2020/12/29 20:33:21;;;;;;;89.25;47.45;;;;;;;2.93;64.31;95781.89;1712723;84;21051;-86
2020/12/29 20:36:29;;;;;;;93.33;46.45;;;;;;;2.86;64.44;95794.22;1623788;86;21481;-86
2020/12/29 20:42:50;;;;;;;71.25;41.30;;;;;;;2.71;64.67;95792.33;1708540;80;21102;-86
2020/12/29 20:45:50;;;;;;;76.60;42.90;;;;;;;2.64;65.02;95786.79;1677612;85;21155;-84
2020/12/29 20:49:00;;;;;;;92.20;47.17;;;;;;;2.63;65.33;95792.12;1677101;85;21170;-84
2020/12/29 20:51:39;;;;;;;100.72;49.65;;;;;;;2.61;65.28;95805.72;1677894;85;21505;-85
2020/12/29 20:54:17;;;;;;;102.05;51.60;;;;;;;2.62;65.30;95805.59;1678625;80;21149;-84
2020/12/29 20:57:00;;;;;;;106.40;53.63;;;;;;;2.63;65.30;95812.91;1678482;84;21086;-85
2020/12/29 20:59:30;;;;;;;113.52;60.48;;;;;;;2.59;65.32;95820.58;1651322;85;21166;-84
2020/12/29 22:02:49;;;;;;;108.83;52.58;;;;;;;2.21;66.86;95871.11;1736819;79;21269;-86
2020/12/29 22:05:28;;;;;;;98.03;52.53;;;;;;;2.16;66.80;95874.99;1705749;83;21181;-85
2020/12/29 22:08:01;;;;;;;109.67;54.48;;;;;;;2.08;66.81;95875.58;1720465;82;21073;-84
2020/12/29 22:10:30;;;;;;;101.02;53.65;;;;;;;2.02;66.80;95879.92;1722303;83;21108;-86
2020/12/29 22:13:03;;;;;;;94.97;48.50;;;;;;;1.98;66.80;95872.83;1720166;83;21209;-85
2020/12/29 22:15:34;;;;;;;102.85;49.50;;;;;;;1.91;67.02;95874.23;1721552;83;21384;-86
2020/12/29 22:18:05;;;;;;;99.40;49.77;;;;;;;1.88;67.22;95880.45;1703854;83;21155;-85
2020/12/29 22:20:42;;;;;;;90.90;48.63;;;;;;;1.87;67.25;95882.70;1722307;83;21151;-87
2020/12/29 22:23:12;;;;;;;114.55;54.45;;;;;;;1.84;67.49;95892.02;1704042;84;21193;-85
2020/12/29 22:25:43;;;;;;;98.97;49.73;;;;;;;1.86;67.61;95886.71;1721325;83;21213;-83
2020/12/29 22:28:14;;;;;;;96.50;47.98;;;;;;;1.88;67.41;95883.05;1719636;83;21346;-86
2020/12/29 22:30:44;;;;;;;88.37;44.90;;;;;;;1.88;67.39;95884.34;1721657;83;21116;-85
2020/12/29 22:33:13;;;;;;;83.40;42.00;;;;;;;1.91;67.25;95882.02;1720332;83;21602;-84
2020/12/29 22:35:46;;;;;;;75.10;41.70;;;;;;;1.90;67.03;95885.55;1721659;83;21109;-86
2020/12/29 22:38:16;;;;;;;76.40;36.63;;;;;;;1.91;67.07;95870.33;1720113;83;21579;-86
2020/12/29 22:44:39;;;;;;;47.78;25.23;;;;;;;1.94;67.14;95883.55;1672871;80;21219;-87
2020/12/29 22:47:08;;;;;;;45.83;24.43;;;;;;;1.84;67.13;95884.23;1671838;86;21087;-86
2020/12/29 22:49:39;;;;;;;39.58;21.90;;;;;;;1.83;67.27;95888.22;1684599;85;21063;-85
2020/12/29 22:55:34;;;;;;;39.90;21.70;;;;;;;1.85;67.44;95878.57;1653979;86;20308;-85
2020/12/29 22:58:06;;;;;;;39.95;20.45;;;;;;;1.93;67.33;95884.02;1655834;86;21110;-86
2020/12/29 23:00:39;;;;;;;40.08;21.23;;;;;;;1.98;67.29;95870.23;1655767;86;21198;-86
2020/12/29 23:03:37;;;;;;;39.92;20.37;;;;;;;2.05;67.22;95874.02;1687181;79;21248;-85
2020/12/29 23:07:12;;;;;;;21.55;11.40;;;;;;;2.07;67.05;95856.54;1650199;80;21186;31
2020/12/29 23:09:42;;;;;;;37.63;18.30;;;;;;;2.10;66.87;95857.63;1657554;81;21236;-85
2020/12/29 23:12:20;;;;;;;32.00;18.60;;;;;;;2.19;66.78;95859.16;1668493;86;21277;-84
2020/12/29 23:18:45;;;;;;;70.35;39.00;;;;;;;2.27;66.79;95855.06;1691509;78;21145;-86
2020/12/29 23:21:16;;;;;;;78.92;41.48;;;;;;;2.25;66.46;95851.73;1677610;85;21163;-85
2020/12/29 23:24:26;;;;;;;78.03;38.23;;;;;;;2.17;66.50;95854.09;1687148;80;21397;31
2020/12/29 23:27:39;;;;;;;75.80;35.98;;;;;;;2.16;66.42;95856.34;1652023;80;21375;-85
2020/12/29 23:30:10;;;;;;;67.95;34.33;;;;;;;2.07;66.35;95863.50;1757619;81;21141;-85
2020/12/29 23:32:43;;;;;;;59.75;29.50;;;;;;;2.05;66.34;95866.70;1757870;81;21062;-84
2020/12/29 23:35:13;;;;;;;59.33;30.55;;;;;;;2.01;66.45;95866.56;1737122;81;21026;-85
2020/12/29 23:37:45;;;;;;;41.10;23.15;;;;;;;1.98;66.58;95874.59;1758733;81;22202;-83
2020/12/29 23:40:42;;;;;;;36.53;19.95;;;;;;;1.94;66.75;95858.41;1759206;81;21160;-86
2020/12/29 23:43:16;;;;;;;34.13;18.98;;;;;;;1.92;66.76;95852.51;1651173;80;21055;-84
2020/12/29 23:47:18;;;;;;;40.78;20.48;;;;;;;1.92;66.93;95850.39;1725799;78;21323;31
2020/12/29 23:50:32;;;;;;;44.63;22.55;;;;;;;1.86;67.01;95849.89;1668545;84;21044;-85
2020/12/29 23:53:02;;;;;;;46.00;23.45;;;;;;;1.79;67.21;95853.06;1700743;84;21413;-86
2020/12/29 23:59:12;;;;;;;41.73;22.42;;;;;;;1.77;67.43;95855.75;1691009;79;21190;-83
